Terminal Aerodrome Forecast
Issued by NWS Austin/San Antonio, TX

Home | Current Version | Previous Version | Text Only | Print | Product List | Glossary On
Versions: 1 2 3 4 5 6 7 8 9 10 11 12 13 14
000
FTUS44 KEWX 300200 AAA
TAFDRT
TAF AMD
KDRT 300225Z 3002/3024 11007KT P6SM SCT250
     FM301200 11006KT P6SM BKN020
     FM301600 12010KT P6SM FEW050=

USA.gov is the U.S. government's official web portal to all federal, state and local government web resources and services.